Trois-Pistoles, Canada
Current Conditions -  °F | °C
As of 5:00 PM on Monday 20 Oct 2014 (Local Time) from CYYY Reporting Station
Broken Clouds Broken Clouds  
Wind Chill: 32°   Ceiling: 4000
Heat Index: 41°   Visibility: 30mi
Dew Point: 28°   Wind: 21mph
Humidity: 61%   Direction: 270°W
Pressure: 29.78"   Gusts: 28mph
Location:  48.12°N, 69.17°W
Report Text: CYYY 202100Z 27018G24KT 30SM BKN040 05/M02 A2978 RMK SC7 SLP086
Loading
Personal Weather Stations






























Interactive Weather Map
Tropical Storm Tracking
New forecast layout! Learn more

10-Day Weather Forecast

Advertisements
Track Severe Weather on mobile